sensor_id;sensor_type;location;lat;lon;timestamp;P1;durP1;ratioP1;P2;durP2;ratioP2
26277;SDS011;14000;52.056;8.510;2023-03-03T00:00:44;85.80;;;34.90;;
26277;SDS011;14000;52.056;8.510;2023-03-03T00:03:11;85.00;;;34.63;;
26277;SDS011;14000;52.056;8.510;2023-03-03T00:05:41;82.33;;;34.97;;
26277;SDS011;14000;52.056;8.510;2023-03-03T00:08:07;81.67;;;33.67;;
26277;SDS011;14000;52.056;8.510;2023-03-03T00:10:33;82.57;;;34.17;;
26277;SDS011;14000;52.056;8.510;2023-03-03T00:12:59;82.00;;;34.30;;
26277;SDS011;14000;52.056;8.510;2023-03-03T00:15:25;86.57;;;36.70;;
26277;SDS011;14000;52.056;8.510;2023-03-03T00:17:51;84.10;;;35.53;;
26277;SDS011;14000;52.056;8.510;2023-03-03T00:23:05;85.40;;;36.63;;
26277;SDS011;14000;52.056;8.510;2023-03-03T00:25:42;86.67;;;36.67;;
26277;SDS011;14000;52.056;8.510;2023-03-03T00:28:23;84.83;;;35.83;;
26277;SDS011;14000;52.056;8.510;2023-03-03T00:30:49;91.13;;;36.57;;
26277;SDS011;14000;52.056;8.510;2023-03-03T00:33:40;87.17;;;36.10;;
26277;SDS011;14000;52.056;8.510;2023-03-03T00:38:38;95.57;;;37.10;;
26277;SDS011;14000;52.056;8.510;2023-03-03T00:41:09;90.93;;;38.73;;
26277;SDS011;14000;52.056;8.510;2023-03-03T00:43:50;88.93;;;37.20;;
26277;SDS011;14000;52.056;8.510;2023-03-03T00:46:25;105.23;;;39.77;;
26277;SDS011;14000;52.056;8.510;2023-03-03T00:48:50;92.17;;;36.23;;
26277;SDS011;14000;52.056;8.510;2023-03-03T00:53:45;79.67;;;34.50;;
26277;SDS011;14000;52.056;8.510;2023-03-03T00:56:10;83.70;;;34.40;;
26277;SDS011;14000;52.056;8.510;2023-03-03T00:58:36;87.83;;;35.70;;
26277;SDS011;14000;52.056;8.510;2023-03-03T01:01:01;84.60;;;34.40;;
26277;SDS011;14000;52.056;8.510;2023-03-03T01:03:27;79.20;;;32.20;;
26277;SDS011;14000;52.056;8.510;2023-03-03T01:05:53;91.47;;;36.60;;
26277;SDS011;14000;52.056;8.510;2023-03-03T01:08:19;88.17;;;34.97;;
26277;SDS011;14000;52.056;8.510;2023-03-03T01:10:50;89.23;;;34.57;;
26277;SDS011;14000;52.056;8.510;2023-03-03T01:13:18;87.10;;;34.67;;
26277;SDS011;14000;52.056;8.510;2023-03-03T01:15:45;95.73;;;35.20;;
26277;SDS011;14000;52.056;8.510;2023-03-03T01:18:11;85.07;;;33.93;;
26277;SDS011;14000;52.056;8.510;2023-03-03T01:20:37;93.07;;;36.30;;
26277;SDS011;14000;52.056;8.510;2023-03-03T01:23:04;89.93;;;34.90;;
26277;SDS011;14000;52.056;8.510;2023-03-03T01:25:29;90.07;;;35.37;;
26277;SDS011;14000;52.056;8.510;2023-03-03T01:27:55;79.80;;;31.93;;
26277;SDS011;14000;52.056;8.510;2023-03-03T01:30:21;93.43;;;34.77;;
26277;SDS011;14000;52.056;8.510;2023-03-03T01:32:47;84.87;;;32.87;;
26277;SDS011;14000;52.056;8.510;2023-03-03T01:35:13;86.67;;;34.00;;
26277;SDS011;14000;52.056;8.510;2023-03-03T01:37:39;80.20;;;32.37;;
26277;SDS011;14000;52.056;8.510;2023-03-03T01:40:05;83.80;;;32.37;;
26277;SDS011;14000;52.056;8.510;2023-03-03T01:42:36;84.47;;;33.60;;
26277;SDS011;14000;52.056;8.510;2023-03-03T01:47:46;79.10;;;31.43;;
26277;SDS011;14000;52.056;8.510;2023-03-03T01:50:15;82.53;;;31.97;;
26277;SDS011;14000;52.056;8.510;2023-03-03T01:52:50;74.97;;;31.53;;
26277;SDS011;14000;52.056;8.510;2023-03-03T01:55:20;79.30;;;31.33;;
26277;SDS011;14000;52.056;8.510;2023-03-03T01:57:54;83.47;;;31.00;;
26277;SDS011;14000;52.056;8.510;2023-03-03T02:00:23;85.50;;;32.57;;
26277;SDS011;14000;52.056;8.510;2023-03-03T02:02:50;88.63;;;33.47;;
26277;SDS011;14000;52.056;8.510;2023-03-03T02:05:16;86.70;;;32.60;;
26277;SDS011;14000;52.056;8.510;2023-03-03T02:07:42;90.37;;;34.70;;
26277;SDS011;14000;52.056;8.510;2023-03-03T02:10:13;91.57;;;34.33;;
26277;SDS011;14000;52.056;8.510;2023-03-03T02:12:59;86.80;;;32.57;;
26277;SDS011;14000;52.056;8.510;2023-03-03T02:15:26;86.40;;;34.07;;
26277;SDS011;14000;52.056;8.510;2023-03-03T02:17:53;90.00;;;33.47;;
26277;SDS011;14000;52.056;8.510;2023-03-03T02:26:11;99.63;;;34.40;;
26277;SDS011;14000;52.056;8.510;2023-03-03T02:28:42;97.47;;;34.53;;
26277;SDS011;14000;52.056;8.510;2023-03-03T02:31:09;91.60;;;33.53;;
26277;SDS011;14000;52.056;8.510;2023-03-03T02:33:41;92.83;;;33.23;;
26277;SDS011;14000;52.056;8.510;2023-03-03T02:36:11;85.33;;;32.57;;
26277;SDS011;14000;52.056;8.510;2023-03-03T02:38:40;90.27;;;33.53;;
26277;SDS011;14000;52.056;8.510;2023-03-03T02:43:59;81.80;;;30.47;;
26277;SDS011;14000;52.056;8.510;2023-03-03T02:46:28;80.20;;;29.43;;
26277;SDS011;14000;52.056;8.510;2023-03-03T02:48:57;80.53;;;31.10;;
26277;SDS011;14000;52.056;8.510;2023-03-03T02:51:23;76.03;;;28.70;;
26277;SDS011;14000;52.056;8.510;2023-03-03T02:53:48;77.83;;;28.80;;
26277;SDS011;14000;52.056;8.510;2023-03-03T02:56:14;80.30;;;29.83;;
26277;SDS011;14000;52.056;8.510;2023-03-03T02:58:39;75.63;;;27.20;;
26277;SDS011;14000;52.056;8.510;2023-03-03T03:01:05;65.83;;;24.60;;
26277;SDS011;14000;52.056;8.510;2023-03-03T03:03:30;69.27;;;25.80;;
26277;SDS011;14000;52.056;8.510;2023-03-03T03:05:56;76.53;;;27.70;;
26277;SDS011;14000;52.056;8.510;2023-03-03T03:08:22;71.83;;;25.63;;
26277;SDS011;14000;52.056;8.510;2023-03-03T03:10:47;71.13;;;26.50;;
26277;SDS011;14000;52.056;8.510;2023-03-03T03:13:13;75.80;;;27.87;;
26277;SDS011;14000;52.056;8.510;2023-03-03T03:15:39;70.93;;;26.33;;
26277;SDS011;14000;52.056;8.510;2023-03-03T03:18:05;82.60;;;28.23;;
26277;SDS011;14000;52.056;8.510;2023-03-03T03:20:34;84.50;;;28.70;;
26277;SDS011;14000;52.056;8.510;2023-03-03T03:23:01;90.73;;;29.17;;
26277;SDS011;14000;52.056;8.510;2023-03-03T03:25:26;82.00;;;28.80;;
26277;SDS011;14000;52.056;8.510;2023-03-03T03:27:55;79.43;;;27.67;;
26277;SDS011;14000;52.056;8.510;2023-03-03T03:30:20;80.97;;;27.83;;
26277;SDS011;14000;52.056;8.510;2023-03-03T03:32:46;79.00;;;26.50;;
26277;SDS011;14000;52.056;8.510;2023-03-03T03:35:12;91.33;;;29.23;;
26277;SDS011;14000;52.056;8.510;2023-03-03T03:37:37;87.10;;;29.17;;
26277;SDS011;14000;52.056;8.510;2023-03-03T03:40:04;100.70;;;31.07;;
26277;SDS011;14000;52.056;8.510;2023-03-03T03:42:30;91.47;;;29.70;;
26277;SDS011;14000;52.056;8.510;2023-03-03T03:44:56;92.30;;;29.93;;
26277;SDS011;14000;52.056;8.510;2023-03-03T03:47:21;83.30;;;28.37;;
26277;SDS011;14000;52.056;8.510;2023-03-03T03:49:47;87.30;;;28.23;;
26277;SDS011;14000;52.056;8.510;2023-03-03T03:52:12;92.53;;;31.13;;
26277;SDS011;14000;52.056;8.510;2023-03-03T03:54:38;98.63;;;30.50;;
26277;SDS011;14000;52.056;8.510;2023-03-03T03:57:04;92.67;;;29.70;;
26277;SDS011;14000;52.056;8.510;2023-03-03T03:59:29;104.80;;;33.13;;
26277;SDS011;14000;52.056;8.510;2023-03-03T04:01:55;106.97;;;32.17;;
26277;SDS011;14000;52.056;8.510;2023-03-03T04:04:20;102.43;;;31.20;;
26277;SDS011;14000;52.056;8.510;2023-03-03T04:06:46;98.87;;;30.53;;
26277;SDS011;14000;52.056;8.510;2023-03-03T04:09:11;108.47;;;32.57;;
26277;SDS011;14000;52.056;8.510;2023-03-03T04:11:37;104.20;;;31.93;;
26277;SDS011;14000;52.056;8.510;2023-03-03T04:14:03;103.80;;;32.30;;
26277;SDS011;14000;52.056;8.510;2023-03-03T04:16:28;102.53;;;30.93;;
26277;SDS011;14000;52.056;8.510;2023-03-03T04:18:54;109.07;;;33.53;;
26277;SDS011;14000;52.056;8.510;2023-03-03T04:21:19;118.17;;;35.27;;
26277;SDS011;14000;52.056;8.510;2023-03-03T04:23:45;115.10;;;32.40;;
26277;SDS011;14000;52.056;8.510;2023-03-03T04:26:12;128.57;;;35.10;;
26277;SDS011;14000;52.056;8.510;2023-03-03T04:28:38;117.50;;;34.37;;
26277;SDS011;14000;52.056;8.510;2023-03-03T04:31:03;129.13;;;34.70;;
26277;SDS011;14000;52.056;8.510;2023-03-03T04:33:29;141.60;;;36.63;;
26277;SDS011;14000;52.056;8.510;2023-03-03T04:35:54;139.13;;;36.33;;
26277;SDS011;14000;52.056;8.510;2023-03-03T04:38:20;139.23;;;37.27;;
26277;SDS011;14000;52.056;8.510;2023-03-03T04:40:46;158.50;;;37.13;;
26277;SDS011;14000;52.056;8.510;2023-03-03T04:43:11;161.67;;;38.87;;
26277;SDS011;14000;52.056;8.510;2023-03-03T04:45:37;141.13;;;36.60;;
26277;SDS011;14000;52.056;8.510;2023-03-03T04:48:03;154.60;;;35.90;;
26277;SDS011;14000;52.056;8.510;2023-03-03T04:50:28;141.53;;;35.00;;
26277;SDS011;14000;52.056;8.510;2023-03-03T04:52:54;137.23;;;36.30;;
26277;SDS011;14000;52.056;8.510;2023-03-03T04:55:19;129.67;;;32.93;;
26277;SDS011;14000;52.056;8.510;2023-03-03T04:57:45;126.90;;;33.73;;
26277;SDS011;14000;52.056;8.510;2023-03-03T05:00:11;112.97;;;32.13;;
26277;SDS011;14000;52.056;8.510;2023-03-03T05:02:39;133.13;;;33.97;;
26277;SDS011;14000;52.056;8.510;2023-03-03T05:05:05;106.50;;;30.37;;
26277;SDS011;14000;52.056;8.510;2023-03-03T05:07:31;123.30;;;32.10;;
26277;SDS011;14000;52.056;8.510;2023-03-03T05:09:57;129.67;;;32.63;;
26277;SDS011;14000;52.056;8.510;2023-03-03T05:12:23;130.73;;;33.67;;
26277;SDS011;14000;52.056;8.510;2023-03-03T05:14:49;133.53;;;34.03;;
26277;SDS011;14000;52.056;8.510;2023-03-03T05:17:14;134.93;;;33.03;;
26277;SDS011;14000;52.056;8.510;2023-03-03T05:19:40;131.20;;;35.20;;
26277;SDS011;14000;52.056;8.510;2023-03-03T05:22:06;158.77;;;34.77;;
26277;SDS011;14000;52.056;8.510;2023-03-03T05:24:31;130.57;;;32.20;;
26277;SDS011;14000;52.056;8.510;2023-03-03T05:26:57;153.83;;;35.00;;
26277;SDS011;14000;52.056;8.510;2023-03-03T05:29:22;157.43;;;36.10;;
26277;SDS011;14000;52.056;8.510;2023-03-03T05:31:48;129.13;;;32.50;;
26277;SDS011;14000;52.056;8.510;2023-03-03T05:34:14;166.67;;;37.70;;
26277;SDS011;14000;52.056;8.510;2023-03-03T05:36:39;134.87;;;33.83;;
26277;SDS011;14000;52.056;8.510;2023-03-03T05:39:05;141.07;;;31.83;;
26277;SDS011;14000;52.056;8.510;2023-03-03T05:41:31;152.87;;;35.40;;
26277;SDS011;14000;52.056;8.510;2023-03-03T05:44:00;151.47;;;35.17;;
26277;SDS011;14000;52.056;8.510;2023-03-03T05:46:26;161.40;;;36.27;;
26277;SDS011;14000;52.056;8.510;2023-03-03T05:48:52;136.47;;;33.17;;
26277;SDS011;14000;52.056;8.510;2023-03-03T05:51:17;151.13;;;33.97;;
26277;SDS011;14000;52.056;8.510;2023-03-03T05:53:43;144.80;;;34.87;;
26277;SDS011;14000;52.056;8.510;2023-03-03T05:56:08;142.17;;;34.63;;
26277;SDS011;14000;52.056;8.510;2023-03-03T05:58:34;157.73;;;34.57;;
26277;SDS011;14000;52.056;8.510;2023-03-03T06:01:00;137.97;;;34.67;;
26277;SDS011;14000;52.056;8.510;2023-03-03T06:03:25;142.77;;;33.03;;
26277;SDS011;14000;52.056;8.510;2023-03-03T06:05:51;145.50;;;33.23;;
26277;SDS011;14000;52.056;8.510;2023-03-03T06:08:17;128.47;;;32.10;;
26277;SDS011;14000;52.056;8.510;2023-03-03T06:10:42;140.30;;;34.33;;
26277;SDS011;14000;52.056;8.510;2023-03-03T06:13:08;137.10;;;34.90;;
26277;SDS011;14000;52.056;8.510;2023-03-03T06:15:34;141.87;;;34.40;;
26277;SDS011;14000;52.056;8.510;2023-03-03T06:17:59;108.67;;;29.27;;
26277;SDS011;14000;52.056;8.510;2023-03-03T06:20:25;125.20;;;31.97;;
26277;SDS011;14000;52.056;8.510;2023-03-03T06:22:50;123.80;;;32.63;;
26277;SDS011;14000;52.056;8.510;2023-03-03T06:25:16;125.57;;;33.33;;
26277;SDS011;14000;52.056;8.510;2023-03-03T06:27:42;124.37;;;32.90;;
26277;SDS011;14000;52.056;8.510;2023-03-03T06:30:07;132.87;;;33.83;;
26277;SDS011;14000;52.056;8.510;2023-03-03T06:32:34;135.50;;;34.73;;
26277;SDS011;14000;52.056;8.510;2023-03-03T06:34:59;108.07;;;31.27;;
26277;SDS011;14000;52.056;8.510;2023-03-03T06:37:25;125.03;;;32.67;;
26277;SDS011;14000;52.056;8.510;2023-03-03T06:39:50;123.27;;;33.37;;
26277;SDS011;14000;52.056;8.510;2023-03-03T06:42:17;116.40;;;30.93;;
26277;SDS011;14000;52.056;8.510;2023-03-03T06:44:43;126.07;;;33.03;;
26277;SDS011;14000;52.056;8.510;2023-03-03T06:47:09;114.10;;;30.43;;
26277;SDS011;14000;52.056;8.510;2023-03-03T06:49:34;122.57;;;31.37;;
26277;SDS011;14000;52.056;8.510;2023-03-03T06:52:04;122.53;;;32.60;;
26277;SDS011;14000;52.056;8.510;2023-03-03T06:54:35;136.70;;;33.73;;
26277;SDS011;14000;52.056;8.510;2023-03-03T06:57:04;125.67;;;31.70;;
26277;SDS011;14000;52.056;8.510;2023-03-03T06:59:39;137.73;;;34.43;;
26277;SDS011;14000;52.056;8.510;2023-03-03T07:02:10;124.50;;;32.97;;
26277;SDS011;14000;52.056;8.510;2023-03-03T07:04:39;130.43;;;33.63;;
26277;SDS011;14000;52.056;8.510;2023-03-03T07:09:42;130.60;;;33.83;;
26277;SDS011;14000;52.056;8.510;2023-03-03T07:12:10;124.83;;;31.83;;
26277;SDS011;14000;52.056;8.510;2023-03-03T07:14:45;131.70;;;33.33;;
26277;SDS011;14000;52.056;8.510;2023-03-03T07:17:18;122.07;;;31.37;;
26277;SDS011;14000;52.056;8.510;2023-03-03T07:19:44;132.53;;;34.10;;
26277;SDS011;14000;52.056;8.510;2023-03-03T07:22:19;117.73;;;32.40;;
26277;SDS011;14000;52.056;8.510;2023-03-03T07:24:47;126.33;;;32.63;;
26277;SDS011;14000;52.056;8.510;2023-03-03T07:29:52;116.90;;;32.87;;
26277;SDS011;14000;52.056;8.510;2023-03-03T07:32:27;123.63;;;33.43;;
26277;SDS011;14000;52.056;8.510;2023-03-03T07:35:01;108.70;;;31.60;;
26277;SDS011;14000;52.056;8.510;2023-03-03T07:37:35;118.07;;;31.83;;
26277;SDS011;14000;52.056;8.510;2023-03-03T07:40:05;125.97;;;31.33;;
26277;SDS011;14000;52.056;8.510;2023-03-03T07:42:57;118.00;;;32.20;;
26277;SDS011;14000;52.056;8.510;2023-03-03T07:48:00;111.60;;;30.20;;
26277;SDS011;14000;52.056;8.510;2023-03-03T07:50:39;116.13;;;33.13;;
26277;SDS011;14000;52.056;8.510;2023-03-03T07:53:11;117.67;;;31.80;;
26277;SDS011;14000;52.056;8.510;2023-03-03T07:55:42;121.50;;;32.23;;
26277;SDS011;14000;52.056;8.510;2023-03-03T08:03:20;104.10;;;29.93;;
26277;SDS011;14000;52.056;8.510;2023-03-03T08:05:46;104.23;;;29.83;;
26277;SDS011;14000;52.056;8.510;2023-03-03T08:08:28;104.27;;;31.33;;
26277;SDS011;14000;52.056;8.510;2023-03-03T08:10:57;105.50;;;30.50;;
26277;SDS011;14000;52.056;8.510;2023-03-03T08:13:28;102.93;;;29.57;;
26277;SDS011;14000;52.056;8.510;2023-03-03T08:18:39;100.00;;;29.53;;
26277;SDS011;14000;52.056;8.510;2023-03-03T08:23:42;99.43;;;27.40;;
26277;SDS011;14000;52.056;8.510;2023-03-03T08:26:09;96.57;;;29.10;;
26277;SDS011;14000;52.056;8.510;2023-03-03T08:28:36;86.43;;;26.83;;
26277;SDS011;14000;52.056;8.510;2023-03-03T08:31:02;97.80;;;28.23;;
26277;SDS011;14000;52.056;8.510;2023-03-03T08:33:28;101.87;;;29.77;;
26277;SDS011;14000;52.056;8.510;2023-03-03T08:35:54;86.20;;;27.93;;
26277;SDS011;14000;52.056;8.510;2023-03-03T08:38:20;93.40;;;27.60;;
26277;SDS011;14000;52.056;8.510;2023-03-03T08:40:46;97.50;;;29.73;;
26277;SDS011;14000;52.056;8.510;2023-03-03T08:43:13;104.53;;;29.00;;
26277;SDS011;14000;52.056;8.510;2023-03-03T08:45:44;81.47;;;24.60;;
26277;SDS011;14000;52.056;8.510;2023-03-03T08:48:12;84.73;;;25.37;;
26277;SDS011;14000;52.056;8.510;2023-03-03T08:50:37;80.87;;;26.40;;
26277;SDS011;14000;52.056;8.510;2023-03-03T08:53:04;96.50;;;29.93;;
26277;SDS011;14000;52.056;8.510;2023-03-03T08:55:30;92.63;;;28.50;;
26277;SDS011;14000;52.056;8.510;2023-03-03T08:57:56;87.60;;;26.43;;
26277;SDS011;14000;52.056;8.510;2023-03-03T09:00:22;86.33;;;26.30;;
26277;SDS011;14000;52.056;8.510;2023-03-03T09:02:48;84.17;;;27.07;;
26277;SDS011;14000;52.056;8.510;2023-03-03T09:05:15;90.33;;;27.30;;
26277;SDS011;14000;52.056;8.510;2023-03-03T09:07:42;96.20;;;29.00;;
26277;SDS011;14000;52.056;8.510;2023-03-03T09:10:10;94.23;;;28.43;;
26277;SDS011;14000;52.056;8.510;2023-03-03T09:12:47;93.87;;;29.57;;
26277;SDS011;14000;52.056;8.510;2023-03-03T09:17:41;98.10;;;28.70;;
26277;SDS011;14000;52.056;8.510;2023-03-03T09:25:40;97.53;;;28.80;;
26277;SDS011;14000;52.056;8.510;2023-03-03T09:28:12;96.00;;;29.63;;
26277;SDS011;14000;52.056;8.510;2023-03-03T09:30:58;95.30;;;29.40;;
26277;SDS011;14000;52.056;8.510;2023-03-03T09:38:49;84.63;;;27.33;;
26277;SDS011;14000;52.056;8.510;2023-03-03T09:44:23;84.93;;;28.37;;
26277;SDS011;14000;52.056;8.510;2023-03-03T09:58:19;86.37;;;27.63;;
26277;SDS011;14000;52.056;8.510;2023-03-03T10:03:59;92.00;;;28.63;;
26277;SDS011;14000;52.056;8.510;2023-03-03T10:12:47;75.93;;;25.70;;
26277;SDS011;14000;52.056;8.510;2023-03-03T10:18:41;75.60;;;25.03;;
26277;SDS011;14000;52.056;8.510;2023-03-03T10:24:24;74.13;;;25.90;;
26277;SDS011;14000;52.056;8.510;2023-03-03T10:27:01;73.67;;;24.90;;
26277;SDS011;14000;52.056;8.510;2023-03-03T10:29:42;68.00;;;24.40;;
26277;SDS011;14000;52.056;8.510;2023-03-03T10:40:42;80.33;;;27.73;;
26277;SDS011;14000;52.056;8.510;2023-03-03T10:43:26;74.70;;;26.13;;
26277;SDS011;14000;52.056;8.510;2023-03-03T10:49:02;76.83;;;27.40;;
26277;SDS011;14000;52.056;8.510;2023-03-03T10:51:43;68.20;;;24.30;;
26277;SDS011;14000;52.056;8.510;2023-03-03T10:57:20;79.67;;;27.63;;
26277;SDS011;14000;52.056;8.510;2023-03-03T11:02:29;72.70;;;25.47;;
26277;SDS011;14000;52.056;8.510;2023-03-03T11:05:20;84.13;;;27.60;;
26277;SDS011;14000;52.056;8.510;2023-03-03T11:08:06;76.43;;;27.13;;
26277;SDS011;14000;52.056;8.510;2023-03-03T11:21:40;74.40;;;26.60;;
26277;SDS011;14000;52.056;8.510;2023-03-03T11:26:55;74.63;;;27.00;;
26277;SDS011;14000;52.056;8.510;2023-03-03T11:43:29;71.30;;;26.27;;
26277;SDS011;14000;52.056;8.510;2023-03-03T11:46:08;68.00;;;24.87;;
26277;SDS011;14000;52.056;8.510;2023-03-03T11:48:45;71.80;;;26.60;;
26277;SDS011;14000;52.056;8.510;2023-03-03T11:54:09;67.03;;;23.43;;
26277;SDS011;14000;52.056;8.510;2023-03-03T11:56:42;66.90;;;25.20;;
26277;SDS011;14000;52.056;8.510;2023-03-03T12:01:59;62.67;;;23.00;;
26277;SDS011;14000;52.056;8.510;2023-03-03T12:04:51;58.17;;;21.40;;
26277;SDS011;14000;52.056;8.510;2023-03-03T12:07:30;58.57;;;21.97;;
26277;SDS011;14000;52.056;8.510;2023-03-03T12:10:20;61.40;;;22.70;;
26277;SDS011;14000;52.056;8.510;2023-03-03T12:29:12;52.00;;;20.07;;
26277;SDS011;14000;52.056;8.510;2023-03-03T12:40:43;51.07;;;19.20;;
26277;SDS011;14000;52.056;8.510;2023-03-03T12:45:56;51.10;;;20.03;;
26277;SDS011;14000;52.056;8.510;2023-03-03T12:48:39;49.63;;;19.07;;
26277;SDS011;14000;52.056;8.510;2023-03-03T12:59:21;47.53;;;19.10;;
26277;SDS011;14000;52.056;8.510;2023-03-03T13:07:37;47.77;;;18.50;;
26277;SDS011;14000;52.056;8.510;2023-03-03T13:10:26;48.23;;;18.27;;
26277;SDS011;14000;52.056;8.510;2023-03-03T13:15:27;40.40;;;17.23;;
26277;SDS011;14000;52.056;8.510;2023-03-03T13:18:23;39.73;;;15.93;;
26277;SDS011;14000;52.056;8.510;2023-03-03T13:28:58;42.97;;;17.70;;
26277;SDS011;14000;52.056;8.510;2023-03-03T13:31:48;41.40;;;17.13;;
26277;SDS011;14000;52.056;8.510;2023-03-03T13:37:03;40.40;;;17.07;;
26277;SDS011;14000;52.056;8.510;2023-03-03T13:39:51;39.63;;;16.70;;
26277;SDS011;14000;52.056;8.510;2023-03-03T13:42:23;37.70;;;15.93;;
26277;SDS011;14000;52.056;8.510;2023-03-03T13:44:56;38.30;;;16.40;;
26277;SDS011;14000;52.056;8.510;2023-03-03T13:50:10;42.50;;;17.80;;
26277;SDS011;14000;52.056;8.510;2023-03-03T13:58:33;40.97;;;16.30;;
26277;SDS011;14000;52.056;8.510;2023-03-03T14:06:18;35.03;;;15.70;;
26277;SDS011;14000;52.056;8.510;2023-03-03T14:08:59;37.17;;;15.50;;
26277;SDS011;14000;52.056;8.510;2023-03-03T14:11:51;32.10;;;13.90;;
26277;SDS011;14000;52.056;8.510;2023-03-03T14:17:33;31.53;;;14.57;;
26277;SDS011;14000;52.056;8.510;2023-03-03T14:20:19;34.60;;;15.60;;
26277;SDS011;14000;52.056;8.510;2023-03-03T14:23:07;36.43;;;15.63;;
26277;SDS011;14000;52.056;8.510;2023-03-03T14:28:18;34.97;;;15.03;;
26277;SDS011;14000;52.056;8.510;2023-03-03T14:30:46;33.10;;;14.60;;
26277;SDS011;14000;52.056;8.510;2023-03-03T14:35:41;35.40;;;15.47;;
26277;SDS011;14000;52.056;8.510;2023-03-03T14:38:11;31.20;;;13.60;;
26277;SDS011;14000;52.056;8.510;2023-03-03T14:40:39;33.00;;;14.37;;
26277;SDS011;14000;52.056;8.510;2023-03-03T14:43:23;30.47;;;13.53;;
26277;SDS011;14000;52.056;8.510;2023-03-03T14:45:51;34.90;;;14.33;;
26277;SDS011;14000;52.056;8.510;2023-03-03T14:48:19;31.13;;;13.97;;
26277;SDS011;14000;52.056;8.510;2023-03-03T14:53:43;33.30;;;14.30;;
26277;SDS011;14000;52.056;8.510;2023-03-03T14:56:20;38.43;;;16.53;;
26277;SDS011;14000;52.056;8.510;2023-03-03T14:58:52;40.87;;;17.17;;
26277;SDS011;14000;52.056;8.510;2023-03-03T15:01:24;36.67;;;15.97;;
26277;SDS011;14000;52.056;8.510;2023-03-03T15:07:12;35.03;;;15.30;;
26277;SDS011;14000;52.056;8.510;2023-03-03T15:14:44;34.83;;;15.27;;
26277;SDS011;14000;52.056;8.510;2023-03-03T15:42:32;40.53;;;16.87;;
26277;SDS011;14000;52.056;8.510;2023-03-03T15:58:23;39.00;;;16.90;;
26277;SDS011;14000;52.056;8.510;2023-03-03T16:03:57;44.23;;;17.50;;
26277;SDS011;14000;52.056;8.510;2023-03-03T16:06:30;41.97;;;17.83;;
26277;SDS011;14000;52.056;8.510;2023-03-03T16:15:14;43.67;;;18.23;;
26277;SDS011;14000;52.056;8.510;2023-03-03T16:27:50;38.30;;;17.63;;
26277;SDS011;14000;52.056;8.510;2023-03-03T16:30:45;43.53;;;18.40;;
26277;SDS011;14000;52.056;8.510;2023-03-03T16:33:17;41.80;;;18.77;;
26277;SDS011;14000;52.056;8.510;2023-03-03T16:35:51;47.77;;;19.27;;
26277;SDS011;14000;52.056;8.510;2023-03-03T16:41:17;61.17;;;25.63;;
26277;SDS011;14000;52.056;8.510;2023-03-03T16:47:01;57.77;;;25.40;;
26277;SDS011;14000;52.056;8.510;2023-03-03T16:55:28;63.87;;;26.57;;
26277;SDS011;14000;52.056;8.510;2023-03-03T17:00:59;62.00;;;26.67;;
26277;SDS011;14000;52.056;8.510;2023-03-03T17:03:50;59.67;;;26.00;;
26277;SDS011;14000;52.056;8.510;2023-03-03T17:06:34;68.20;;;26.53;;
26277;SDS011;14000;52.056;8.510;2023-03-03T17:15:11;60.83;;;25.77;;
26277;SDS011;14000;52.056;8.510;2023-03-03T17:17:59;69.17;;;26.97;;
26277;SDS011;14000;52.056;8.510;2023-03-03T17:21:09;57.60;;;24.53;;
26277;SDS011;14000;52.056;8.510;2023-03-03T17:29:20;59.90;;;24.27;;
26277;SDS011;14000;52.056;8.510;2023-03-03T17:35:24;63.73;;;23.60;;
26277;SDS011;14000;52.056;8.510;2023-03-03T17:38:20;56.73;;;23.17;;
26277;SDS011;14000;52.056;8.510;2023-03-03T17:41:10;62.23;;;23.03;;
26277;SDS011;14000;52.056;8.510;2023-03-03T17:43:53;61.57;;;24.17;;
26277;SDS011;14000;52.056;8.510;2023-03-03T17:46:50;57.70;;;23.03;;
26277;SDS011;14000;52.056;8.510;2023-03-03T17:54:40;58.43;;;24.17;;
26277;SDS011;14000;52.056;8.510;2023-03-03T17:57:25;57.00;;;22.70;;
26277;SDS011;14000;52.056;8.510;2023-03-03T18:00:14;53.97;;;23.20;;
26277;SDS011;14000;52.056;8.510;2023-03-03T18:06:06;57.13;;;22.33;;
26277;SDS011;14000;52.056;8.510;2023-03-03T18:11:26;54.73;;;22.17;;
26277;SDS011;14000;52.056;8.510;2023-03-03T18:22:11;57.30;;;22.10;;
26277;SDS011;14000;52.056;8.510;2023-03-03T18:30:23;52.63;;;21.43;;
26277;SDS011;14000;52.056;8.510;2023-03-03T18:35:25;53.90;;;20.53;;
26277;SDS011;14000;52.056;8.510;2023-03-03T18:40:50;55.77;;;22.33;;
26277;SDS011;14000;52.056;8.510;2023-03-03T18:48:56;55.80;;;22.17;;
26277;SDS011;14000;52.056;8.510;2023-03-03T18:57:03;48.57;;;21.67;;
26277;SDS011;14000;52.056;8.510;2023-03-03T18:59:38;53.67;;;21.03;;
26277;SDS011;14000;52.056;8.510;2023-03-03T19:04:47;51.97;;;20.57;;
26277;SDS011;14000;52.056;8.510;2023-03-03T19:09:58;54.13;;;22.27;;
26277;SDS011;14000;52.056;8.510;2023-03-03T19:13:01;49.40;;;21.83;;
26277;SDS011;14000;52.056;8.510;2023-03-03T19:18:13;57.47;;;21.70;;
26277;SDS011;14000;52.056;8.510;2023-03-03T19:23:31;54.83;;;22.73;;
26277;SDS011;14000;52.056;8.510;2023-03-03T19:29:09;54.57;;;23.27;;
26277;SDS011;14000;52.056;8.510;2023-03-03T19:31:55;52.70;;;21.07;;
26277;SDS011;14000;52.056;8.510;2023-03-03T19:48:05;50.20;;;21.10;;
26277;SDS011;14000;52.056;8.510;2023-03-03T19:51:04;51.83;;;22.00;;
26277;SDS011;14000;52.056;8.510;2023-03-03T19:56:39;52.47;;;22.03;;
26277;SDS011;14000;52.056;8.510;2023-03-03T19:59:30;55.70;;;21.93;;
26277;SDS011;14000;52.056;8.510;2023-03-03T20:27:18;48.33;;;20.90;;
26277;SDS011;14000;52.056;8.510;2023-03-03T20:30:02;49.03;;;20.53;;
26277;SDS011;14000;52.056;8.510;2023-03-03T20:40:48;45.87;;;18.60;;
26277;SDS011;14000;52.056;8.510;2023-03-03T20:43:25;42.27;;;18.97;;
26277;SDS011;14000;52.056;8.510;2023-03-03T20:57:08;42.60;;;18.63;;
26277;SDS011;14000;52.056;8.510;2023-03-03T21:02:28;47.17;;;21.63;;
26277;SDS011;14000;52.056;8.510;2023-03-03T21:07:34;42.27;;;20.10;;
26277;SDS011;14000;52.056;8.510;2023-03-03T21:10:14;50.97;;;21.80;;
26277;SDS011;14000;52.056;8.510;2023-03-03T21:12:48;41.30;;;17.70;;
26277;SDS011;14000;52.056;8.510;2023-03-03T21:15:25;41.80;;;18.07;;
26277;SDS011;14000;52.056;8.510;2023-03-03T21:17:56;35.63;;;17.07;;
26277;SDS011;14000;52.056;8.510;2023-03-03T21:22:52;38.67;;;17.00;;
26277;SDS011;14000;52.056;8.510;2023-03-03T21:28:15;40.53;;;17.03;;
26277;SDS011;14000;52.056;8.510;2023-03-03T21:36:08;45.90;;;20.47;;
26277;SDS011;14000;52.056;8.510;2023-03-03T21:38:35;42.60;;;18.53;;
26277;SDS011;14000;52.056;8.510;2023-03-03T21:41:03;38.57;;;16.23;;
26277;SDS011;14000;52.056;8.510;2023-03-03T21:43:34;36.73;;;16.77;;
26277;SDS011;14000;52.056;8.510;2023-03-03T21:46:01;39.60;;;16.37;;
26277;SDS011;14000;52.056;8.510;2023-03-03T21:48:27;31.93;;;12.73;;
26277;SDS011;14000;52.056;8.510;2023-03-03T21:50:53;30.77;;;12.07;;
26277;SDS011;14000;52.056;8.510;2023-03-03T21:53:18;29.70;;;11.10;;
26277;SDS011;14000;52.056;8.510;2023-03-03T21:55:45;30.07;;;10.03;;
26277;SDS011;14000;52.056;8.510;2023-03-03T21:58:13;29.47;;;10.20;;
26277;SDS011;14000;52.056;8.510;2023-03-03T22:00:42;25.07;;;9.27;;